Forside
METAR-TAF:

METAR-TAF

Lufthavne :

RAF

Boulmer, England

Breddekreds: 55-25-19N, længdekreds: 1-36-12W, højde: 24 m

Aktuelle vejr

Denne rapport blev lavet for 1 time og 18 minutter siden, kl. 01:50 UTC
Vind 6 kt fra vestsydvest
Temperatur 9°C
Fugtighed 93%
Tryk 1032 hPa
Sigt 10 km eller mere

METAR: EGQM 250150Z AUTO 25006KT 9999 NCD 09/08 Q1032

Tid: 04:08 (03:08 UTC)


TAF: fraværende

Vejrobservationer og prognoser fra mere end 4000 lufthavne (METAR og TAF).

De gule og røde prikker repræsenterer de meteorologiske stationer.

Flyt musen over at se navnet på stationen.

Så klik over at se vejr observationer og prognoser.

At skifte det kort: Klik på de grønne knapper med et sort kors for at zoome ind; på den grønne knap med en bindestreg for at zoome ud; eller på de grønne pile for tilstødende kort.


METAR-TAF: